Time;durP1;ratioP1;P1;durP2;ratioP2;P2;SDS_P1;SDS_P2;PMS_P1;PMS_P2;Temp;Humidity;BMP_temperature;BMP_pressure;BME280_temperature;BME280_humidity;BME280_pressure;Samples;Min_cycle;Max_cycle;Signal;HPM_P1;HPM_P2
2024/01/24 00:00:07;;;;;;;0.10;0.10;;;;;;;14.62;72.23;101288.53;5048873;28;20022;-81
2024/01/24 00:02:33;;;;;;;0.05;0.05;;;;;;;14.59;72.83;101299.28;5046414;28;20029;-80
2024/01/24 00:04:59;;;;;;;0.10;0.10;;;;;;;14.66;72.95;101282.22;5045100;28;20037;-80
2024/01/24 00:07:26;;;;;;;0.10;0.10;;;;;;;14.45;73.98;101287.22;5047287;28;20109;-81
2024/01/24 00:09:52;;;;;;;0.10;0.10;;;;;;;14.47;74.27;101279.22;5039416;28;20041;-78
2024/01/24 00:12:19;;;;;;;0.10;0.10;;;;;;;14.29;75.10;101288.59;5038955;28;20033;-79
2024/01/24 00:14:45;;;;;;;0.10;0.10;;;;;;;14.19;75.92;101288.88;5041290;28;20576;-79
2024/01/24 00:17:11;;;;;;;2.05;0.75;;;;;;;14.27;75.87;101280.66;5043645;28;20025;-80
2024/01/24 00:19:37;;;;;;;0.10;0.10;;;;;;;14.28;75.96;101303.72;5043033;28;20479;-82
2024/01/24 00:22:04;;;;;;;0.10;0.10;;;;;;;14.20;76.47;101285.25;5045501;28;20030;-80
2024/01/24 00:24:30;;;;;;;0.10;0.10;;;;;;;14.21;76.47;101286.16;5046067;28;20096;-82
2024/01/24 00:26:56;;;;;;;0.10;0.10;;;;;;;14.13;76.84;101291.69;5045984;28;20032;-83
2024/01/24 00:29:22;;;;;;;0.10;0.10;;;;;;;14.25;76.35;101298.47;5041844;28;20033;-81
2024/01/24 00:31:49;;;;;;;0.10;0.10;;;;;;;14.20;76.63;101287.06;5042502;28;20028;-81
2024/01/24 00:34:16;;;;;;;0.10;0.10;;;;;;;14.22;76.65;101296.75;5040753;28;20117;-81
2024/01/24 00:36:42;;;;;;;0.10;0.10;;;;;;;14.05;77.65;101294.56;5045126;28;20029;-80
2024/01/24 00:39:08;;;;;;;0.10;0.10;;;;;;;14.22;77.08;101279.91;5046685;28;20029;-82
2024/01/24 00:41:34;;;;;;;0.10;0.10;;;;;;;14.01;91.66;101308.03;5044363;28;20029;-82
2024/01/24 00:44:00;;;;;;;0.10;0.10;;;;;;;14.12;78.47;101321.03;5045504;28;20029;-81
2024/01/24 00:46:27;;;;;;;0.10;0.10;;;;;;;14.04;78.29;101299.94;5045398;28;20040;-80
2024/01/24 00:48:53;;;;;;;0.10;0.10;;;;;;;14.02;78.52;101301.78;5046674;28;20034;-78
2024/01/24 00:51:19;;;;;;;0.10;0.10;;;;;;;14.03;78.63;101316.81;5047192;28;20037;-80
2024/01/24 00:53:51;;;;;;;0.10;0.10;;;;;;;14.00;79.06;101319.59;5048205;28;20056;-79
2024/01/24 00:56:18;;;;;;;0.20;0.20;;;;;;;14.05;78.56;101305.22;5049026;28;20065;-81
2024/01/24 00:58:44;;;;;;;0.10;0.10;;;;;;;14.04;78.33;101385.19;5049801;28;20100;-79
2024/01/24 01:01:10;;;;;;;0.10;0.10;;;;;;;13.94;79.10;101343.72;5047706;28;20033;-82
2024/01/24 01:03:36;;;;;;;0.13;0.13;;;;;;;14.11;78.65;101337.97;5046609;28;20029;-82
2024/01/24 01:06:04;;;;;;;0.10;0.10;;;;;;;14.14;78.50;101325.41;5053710;28;20034;-83
2024/01/24 01:08:30;;;;;;;0.10;0.10;;;;;;;14.08;78.83;101334.44;5050589;28;20035;-81
2024/01/24 01:10:56;;;;;;;0.10;0.10;;;;;;;14.01;79.08;101329.34;5058875;28;20168;-82
2024/01/24 01:13:24;;;;;;;1.40;1.30;;;;;;;13.68;80.22;101348.81;5054455;28;20025;-82
2024/01/24 01:15:50;;;;;;;0.10;0.10;;;;;;;13.86;79.95;101323.47;5069663;28;20040;-82
2024/01/24 01:18:16;;;;;;;0.10;0.10;;;;;;;13.76;80.32;101340.63;5056144;28;20033;-83
2024/01/24 01:20:43;;;;;;;0.10;0.10;;;;;;;13.82;80.10;101321.81;5050134;28;20025;-82
2024/01/24 01:23:09;;;;;;;0.10;0.10;;;;;;;13.79;80.02;101329.88;5048162;28;20037;-82
2024/01/24 01:25:35;;;;;;;0.10;0.10;;;;;;;13.81;79.97;101320.06;5051098;28;20034;-83
2024/01/24 01:28:01;;;;;;;0.10;0.10;;;;;;;13.65;80.21;101322.25;5047289;28;20058;-82
2024/01/24 01:30:28;;;;;;;0.10;0.10;;;;;;;13.85;79.35;101287.09;5048181;28;20101;-81
2024/01/24 01:32:54;;;;;;;0.10;0.10;;;;;;;13.88;78.92;101313.69;5044672;28;20040;-82
2024/01/24 01:35:20;;;;;;;0.10;0.10;;;;;;;13.84;79.00;101309.31;5048773;28;20029;-81
2024/01/24 01:37:46;;;;;;;0.10;0.10;;;;;;;13.87;78.92;101290.59;5049452;28;20033;-82
2024/01/24 01:40:13;;;;;;;0.10;0.10;;;;;;;14.02;78.11;101288.47;5047362;28;20025;-80
2024/01/24 01:42:44;;;;;;;0.10;0.10;;;;;;;13.90;77.96;101290.50;5049239;28;20040;-82
2024/01/24 01:45:11;;;;;;;0.10;0.10;;;;;;;13.89;77.48;101294.13;5057371;28;20040;-81
2024/01/24 01:47:39;;;;;;;0.10;0.10;;;;;;;14.14;76.76;101285.44;5048421;28;20089;-81
2024/01/24 01:50:14;;;;;;;0.10;0.10;;;;;;;14.15;76.52;101310.31;5049595;28;20049;-82
2024/01/24 01:52:41;;;;;;;0.10;0.10;;;;;;;14.14;75.93;101272.09;5048781;28;20048;-81
2024/01/24 01:55:10;;;;;;;0.10;0.10;;;;;;;14.14;75.78;101274.78;5046735;28;20232;-82
2024/01/24 01:57:39;;;;;;;0.10;0.10;;;;;;;14.14;75.44;101276.56;5053084;28;20033;-81
2024/01/24 02:00:08;;;;;;;0.10;0.10;;;;;;;14.29;74.60;101269.94;5057771;28;20053;-80
2024/01/24 02:02:34;;;;;;;0.05;0.05;;;;;;;14.29;74.66;101301.91;5057974;28;20029;-81
2024/01/24 02:05:00;;;;;;;0.10;0.10;;;;;;;14.22;74.57;101278.09;5050335;28;20065;-82
2024/01/24 02:07:26;;;;;;;0.10;0.10;;;;;;;14.29;74.35;101284.13;5056973;28;20017;-82
2024/01/24 02:09:53;;;;;;;0.10;0.10;;;;;;;14.23;73.94;101330.50;5054663;28;20037;-80
2024/01/24 02:12:19;;;;;;;0.10;0.10;;;;;;;14.28;73.91;101285.06;5056676;28;20100;-80
2024/01/24 02:14:46;;;;;;;0.10;0.10;;;;;;;14.18;74.05;101292.44;5059200;28;20033;-78
2024/01/24 02:17:12;;;;;;;0.10;0.10;;;;;;;14.23;73.46;101301.19;5065514;28;20077;-79
2024/01/24 02:19:39;;;;;;;4.47;0.73;;;;;;;14.07;73.63;101329.16;5056928;28;20052;-80
2024/01/24 02:22:05;;;;;;;0.10;0.10;;;;;;;14.11;73.67;101329.97;5055769;28;20029;-81
2024/01/24 02:24:31;;;;;;;0.10;0.10;;;;;;;14.20;73.44;101313.72;5056710;28;20091;-79
2024/01/24 02:26:58;;;;;;;0.10;0.10;;;;;;;14.28;72.95;101332.16;5057974;28;20045;-80
2024/01/24 02:29:24;;;;;;;0.10;0.10;;;;;;;14.19;72.85;101320.84;5058192;28;20035;-82
2024/01/24 02:31:50;;;;;;;0.10;0.10;;;;;;;14.16;72.84;101355.56;5056817;28;20060;-79
2024/01/24 02:34:16;;;;;;;0.10;0.10;;;;;;;14.05;73.13;101326.53;5049102;28;20091;-83
2024/01/24 02:36:42;;;;;;;0.05;0.05;;;;;;;14.02;72.92;101331.94;5046883;28;20105;-83
2024/01/24 02:39:09;;;;;;;0.30;0.30;;;;;;;14.18;72.59;101316.44;5045627;28;20025;-82
2024/01/24 02:41:38;;;;;;;0.10;0.10;;;;;;;14.05;72.39;101331.00;5045167;28;20049;-82
2024/01/24 02:44:04;;;;;;;0.17;0.17;;;;;;;14.18;72.08;101327.09;5049986;28;20036;-84
2024/01/24 02:46:30;;;;;;;0.10;0.10;;;;;;;14.02;72.55;101373.72;5045268;28;20025;-83
2024/01/24 02:48:56;;;;;;;0.30;0.30;;;;;;;14.01;72.08;101347.97;5044056;28;20029;-83
2024/01/24 02:51:25;;;;;;;3.53;2.83;;;;;;;14.16;71.77;101346.69;5049421;28;20026;-82
2024/01/24 02:53:52;;;;;;;0.75;0.75;;;;;;;14.02;72.16;101336.41;5045409;28;20017;-82
2024/01/24 02:56:18;;;;;;;0.20;0.20;;;;;;;13.87;72.56;101314.59;5041636;28;20017;-84
2024/01/24 02:58:45;;;;;;;0.10;0.10;;;;;;;13.97;71.85;101343.63;5045368;28;20025;-84
2024/01/24 03:01:11;;;;;;;0.10;0.10;;;;;;;13.95;71.58;101335.69;5049072;28;20037;-82
2024/01/24 03:03:39;;;;;;;0.82;0.82;;;;;;;13.97;71.32;101352.50;5057828;28;20039;-84
2024/01/24 03:06:06;;;;;;;0.85;0.85;;;;;;;13.93;71.45;101363.28;5044607;28;20600;-82
2024/01/24 03:08:49;;;;;;;5.57;2.92;;;;;;;14.04;71.15;101393.19;5055397;28;20030;-83
2024/01/24 03:11:15;;;;;;;0.10;0.10;;;;;;;13.91;71.39;101374.84;5050074;28;20040;-82
2024/01/24 03:13:42;;;;;;;0.10;0.10;;;;;;;13.83;71.43;101336.91;5050268;28;20040;-82
2024/01/24 03:16:09;;;;;;;0.10;0.10;;;;;;;13.91;71.16;101350.00;5059728;28;20059;-82
2024/01/24 03:18:37;;;;;;;0.75;0.75;;;;;;;13.91;70.83;101382.84;5059713;28;20489;-81
2024/01/24 03:21:05;;;;;;;0.10;0.10;;;;;;;13.74;70.75;101364.63;5048503;28;20029;-80
2024/01/24 03:23:32;;;;;;;0.10;0.10;;;;;;;13.74;70.39;101347.75;5049825;28;20029;-82
2024/01/24 03:25:59;;;;;;;0.73;0.73;;;;;;;13.71;70.21;101335.41;5050763;28;20049;-81
2024/01/24 03:28:25;;;;;;;0.10;0.10;;;;;;;13.67;70.21;101367.47;5049902;28;20029;-82
2024/01/24 03:30:53;;;;;;;8.65;2.25;;;;;;;13.72;69.65;101379.75;5053051;28;20067;-82
2024/01/24 03:33:19;;;;;;;1.55;1.27;;;;;;;13.48;70.50;101373.22;5050336;28;20089;-82
2024/01/24 03:35:45;;;;;;;0.10;0.10;;;;;;;13.44;70.44;101360.91;5050236;28;20044;-81
2024/01/24 03:38:11;;;;;;;0.10;0.10;;;;;;;13.53;69.98;101341.19;5049161;28;20025;-82
2024/01/24 03:40:38;;;;;;;4.30;2.85;;;;;;;13.61;69.21;101341.00;5049971;28;20021;-80
2024/01/24 03:43:05;;;;;;;0.47;0.47;;;;;;;13.39;69.67;101374.31;5051324;28;20025;-80
2024/01/24 03:45:31;;;;;;;0.10;0.10;;;;;;;13.41;69.49;101375.16;5050197;28;20123;-81
2024/01/24 03:47:57;;;;;;;0.13;0.13;;;;;;;13.58;68.90;101364.13;5049764;28;20084;-81
2024/01/24 03:50:24;;;;;;;0.10;0.10;;;;;;;13.40;68.85;101377.88;5052076;28;20061;-80
2024/01/24 03:52:50;;;;;;;0.10;0.10;;;;;;;13.46;68.65;101374.19;5048701;28;20056;-81
2024/01/24 03:55:16;;;;;;;0.10;0.10;;;;;;;13.26;69.15;101394.13;5052569;28;20028;-82
2024/01/24 03:57:43;;;;;;;0.73;0.73;;;;;;;13.26;68.76;101388.81;5058421;28;20041;-82
2024/01/24 04:00:11;;;;;;;0.10;0.10;;;;;;;13.35;68.75;101387.72;5056943;28;20025;-80
2024/01/24 04:02:37;;;;;;;0.10;0.10;;;;;;;13.25;68.14;101377.28;5060256;28;20031;-81
2024/01/24 04:05:04;;;;;;;0.20;0.20;;;;;;;13.31;67.83;101372.72;5057335;28;20026;-81
2024/01/24 04:07:30;;;;;;;0.10;0.10;;;;;;;13.31;67.34;101376.28;5063143;28;20024;-81
2024/01/24 04:09:57;;;;;;;0.10;0.10;;;;;;;13.19;67.44;101397.84;5052161;28;20045;-81
2024/01/24 04:12:23;;;;;;;0.20;0.20;;;;;;;13.39;66.79;101405.41;5052087;28;20033;-80
2024/01/24 04:14:49;;;;;;;0.10;0.10;;;;;;;13.33;66.82;101394.84;5056361;28;20040;-82
2024/01/24 04:17:16;;;;;;;0.10;0.10;;;;;;;13.34;66.34;101392.16;5058427;28;20089;-82
2024/01/24 04:19:42;;;;;;;1.02;1.02;;;;;;;13.20;66.72;101435.03;5051093;28;20061;-80
2024/01/24 04:22:08;;;;;;;0.73;0.73;;;;;;;13.25;66.27;101413.66;5049070;28;20388;-82
2024/01/24 04:24:35;;;;;;;1.80;1.70;;;;;;;13.32;66.61;101396.66;5051271;28;20029;-82
2024/01/24 04:27:01;;;;;;;0.10;0.10;;;;;;;13.35;65.94;101417.88;5059235;28;20029;-82
2024/01/24 04:29:27;;;;;;;1.17;1.17;;;;;;;13.18;66.07;101428.88;5052052;28;20060;-81
2024/01/24 04:31:53;;;;;;;0.15;0.15;;;;;;;13.27;66.20;101422.47;5052708;28;20400;-82
2024/01/24 04:34:20;;;;;;;0.10;0.10;;;;;;;13.26;66.16;101421.59;5055621;28;20064;-82
2024/01/24 04:36:46;;;;;;;0.15;0.15;;;;;;;13.25;65.54;101442.94;5063025;28;20068;-82
2024/01/24 04:39:12;;;;;;;0.10;0.10;;;;;;;13.18;65.28;101420.88;5060290;28;20060;-81
2024/01/24 04:41:38;;;;;;;0.65;0.52;;;;;;;13.22;64.20;101446.53;5048683;28;20030;-81
2024/01/24 04:44:05;;;;;;;0.20;0.20;;;;;;;13.23;63.32;101442.97;5048837;28;20034;-80
2024/01/24 04:46:31;;;;;;;1.75;1.67;;;;;;;13.33;62.55;101448.09;5053739;28;20033;-80
2024/01/24 04:48:57;;;;;;;0.10;0.10;;;;;;;13.38;62.31;101462.19;5056315;28;20034;-80
2024/01/24 04:51:24;;;;;;;0.10;0.10;;;;;;;13.51;61.62;101445.06;5052443;28;20097;-79
2024/01/24 04:53:50;;;;;;;0.63;0.63;;;;;;;13.33;61.52;101458.72;5047410;28;20033;-81
2024/01/24 04:56:16;;;;;;;0.10;0.10;;;;;;;13.47;61.19;101434.50;5054118;28;20029;-81
2024/01/24 04:58:43;;;;;;;8.20;2.33;;;;;;;13.53;61.31;101476.94;5058725;28;20049;-79
2024/01/24 05:01:11;;;;;;;1.25;1.17;;;;;;;13.35;61.35;101472.91;5051534;28;20057;-80
2024/01/24 05:03:37;;;;;;;0.17;0.17;;;;;;;13.48;61.23;101469.06;5050995;28;20022;-80
2024/01/24 05:06:04;;;;;;;0.30;0.30;;;;;;;13.43;60.42;101473.63;5052609;28;20056;-81
2024/01/24 05:08:30;;;;;;;0.10;0.10;;;;;;;13.44;59.91;101480.69;5055778;28;20024;-81
2024/01/24 05:10:56;;;;;;;0.15;0.15;;;;;;;13.34;59.34;101487.09;5052792;28;20037;-82
2024/01/24 05:13:22;;;;;;;0.10;0.10;;;;;;;13.33;59.26;101470.25;5050221;28;20033;-81
2024/01/24 05:15:49;;;;;;;0.10;0.10;;;;;;;13.51;58.99;101471.66;5049628;28;20541;-82
2024/01/24 05:18:16;;;;;;;4.88;2.05;;;;;;;13.45;59.48;101469.16;5049581;28;20037;-82
2024/01/24 05:20:42;;;;;;;0.10;0.10;;;;;;;13.26;59.86;101456.19;5055393;28;20041;-81
2024/01/24 05:23:08;;;;;;;1.60;1.50;;;;;;;13.26;59.82;101514.75;5054995;28;20021;-81
2024/01/24 05:25:35;;;;;;;0.63;0.63;;;;;;;13.43;59.13;101473.63;5051525;28;20104;-81
2024/01/24 05:28:01;;;;;;;1.13;1.13;;;;;;;13.25;60.17;101467.75;5051185;28;20032;-80
2024/01/24 05:30:27;;;;;;;0.15;0.13;;;;;;;13.16;60.63;101512.28;5056483;28;20034;-80
2024/01/24 05:32:56;;;;;;;0.38;0.38;;;;;;;13.26;60.50;101501.44;5051881;28;20033;-79
2024/01/24 05:35:23;;;;;;;0.20;0.20;;;;;;;13.15;59.98;101539.84;5047868;28;20060;-81
2024/01/24 05:37:49;;;;;;;0.03;0.03;;;;;;;13.00;59.93;101538.34;5054474;28;20041;-81
2024/01/24 05:40:17;;;;;;;0.20;0.20;;;;;;;12.99;58.93;101536.59;5052853;28;20056;-82
2024/01/24 05:42:43;;;;;;;1.85;1.75;;;;;;;12.95;58.58;101538.44;5059086;28;20036;-80
2024/01/24 05:45:10;;;;;;;0.10;0.10;;;;;;;13.02;58.37;101539.16;5055062;28;20038;-82
2024/01/24 05:47:37;;;;;;;0.75;0.75;;;;;;;12.87;58.62;101558.97;5055500;28;20033;-82
2024/01/24 05:50:03;;;;;;;0.10;0.10;;;;;;;13.01;58.27;101551.59;5051008;28;20041;-82
2024/01/24 05:52:29;;;;;;;0.10;0.10;;;;;;;13.01;58.68;101585.28;5055565;28;20047;-80
2024/01/24 05:54:56;;;;;;;0.10;0.10;;;;;;;13.02;59.05;101616.31;5062852;28;20033;-79
2024/01/24 05:57:22;;;;;;;0.25;0.25;;;;;;;12.95;60.46;101568.53;5058757;28;20037;-80
2024/01/24 05:59:48;;;;;;;0.68;0.68;;;;;;;12.95;60.86;101586.31;5050802;28;20511;-81
2024/01/24 06:02:14;;;;;;;0.10;0.10;;;;;;;12.87;61.35;101589.09;5043835;28;20051;-82
2024/01/24 06:04:40;;;;;;;0.60;0.60;;;;;;;12.67;61.45;101593.88;5048577;28;20022;-82
2024/01/24 06:07:07;;;;;;;2.03;1.58;;;;;;;12.56;61.07;101600.25;5047829;28;20026;-82
2024/01/24 06:09:33;;;;;;;2.17;0.85;;;;;;;12.68;60.86;101577.88;5046434;28;20034;-81
2024/01/24 06:11:59;;;;;;;0.43;0.43;;;;;;;12.57;59.94;101591.38;5051562;28;20037;-82
2024/01/24 06:14:26;;;;;;;2.30;2.10;;;;;;;12.60;60.16;101603.75;5047139;28;20089;-81
2024/01/24 06:16:52;;;;;;;0.43;0.43;;;;;;;12.48;59.49;101626.06;5059864;28;20394;-81
2024/01/24 06:19:18;;;;;;;0.50;0.50;;;;;;;12.66;58.41;101616.03;5054544;28;20045;-79
2024/01/24 06:21:44;;;;;;;0.10;0.10;;;;;;;12.62;57.60;101600.16;5051181;28;20043;-80
2024/01/24 06:24:10;;;;;;;1.75;1.52;;;;;;;12.60;57.75;101607.28;5059691;28;20087;-79
2024/01/24 06:26:37;;;;;;;0.10;0.10;;;;;;;12.62;57.43;101621.41;5052471;28;20044;-81
2024/01/24 06:29:04;;;;;;;0.38;0.38;;;;;;;12.62;56.75;101636.47;5051419;28;20029;-81
2024/01/24 06:31:30;;;;;;;0.10;0.10;;;;;;;12.74;56.75;101622.13;5061251;28;20041;-82
2024/01/24 06:33:56;;;;;;;1.23;1.23;;;;;;;12.63;57.02;101632.94;5050175;28;20053;-81
2024/01/24 06:36:22;;;;;;;0.20;0.20;;;;;;;12.57;56.82;101644.56;5041265;28;20033;-81
2024/01/24 06:38:48;;;;;;;0.10;0.10;;;;;;;12.49;57.51;101646.44;5052082;28;20051;-80
2024/01/24 06:41:15;;;;;;;0.75;0.75;;;;;;;12.52;56.94;101662.31;5051860;28;20033;-80
2024/01/24 06:43:42;;;;;;;0.10;0.10;;;;;;;12.52;56.68;101659.66;5050683;28;20045;-80
2024/01/24 06:46:11;;;;;;;0.10;0.10;;;;;;;12.33;57.15;101667.03;5056252;28;20026;-81
2024/01/24 06:48:37;;;;;;;2.58;2.42;;;;;;;12.33;56.88;101687.44;5054581;28;20036;-82
2024/01/24 06:51:04;;;;;;;0.10;0.10;;;;;;;12.30;56.99;101691.00;5054449;28;20036;-82
2024/01/24 06:53:31;;;;;;;0.30;0.30;;;;;;;12.29;56.38;101683.94;5048740;28;20029;-80
2024/01/24 06:55:57;;;;;;;0.13;0.13;;;;;;;12.09;57.00;101684.19;5051984;28;20023;-79
2024/01/24 06:58:23;;;;;;;0.22;0.22;;;;;;;12.17;56.85;101654.88;5050053;28;20041;-79
2024/01/24 07:00:49;;;;;;;0.20;0.20;;;;;;;12.27;56.40;101691.94;5048083;28;20041;-80
2024/01/24 07:03:15;;;;;;;0.10;0.10;;;;;;;12.15;56.29;101700.06;5047487;28;20129;-78
2024/01/24 07:05:43;;;;;;;0.10;0.10;;;;;;;12.05;56.11;101683.34;5049782;28;20093;-81
2024/01/24 07:08:09;;;;;;;1.55;1.45;;;;;;;12.07;56.64;101688.66;5057534;28;20032;-79
2024/01/24 07:10:35;;;;;;;3.15;2.85;;;;;;;12.23;56.19;101682.22;5057111;28;20033;-80
2024/01/24 07:13:01;;;;;;;0.25;0.25;;;;;;;12.23;56.30;101692.00;5052591;28;20036;-80
2024/01/24 07:15:28;;;;;;;6.38;4.85;;;;;;;12.17;55.95;101692.94;5050184;28;20061;-80
2024/01/24 07:17:55;;;;;;;0.40;0.40;;;;;;;12.06;56.06;101689.53;5051733;28;20079;-80
2024/01/24 07:20:21;;;;;;;0.47;0.47;;;;;;;12.05;55.94;101696.63;5050809;28;20021;-80
2024/01/24 07:22:48;;;;;;;1.48;1.38;;;;;;;12.03;55.84;101722.34;5047383;28;20037;-80
2024/01/24 07:25:14;;;;;;;1.55;1.45;;;;;;;12.10;55.56;101717.81;5051299;28;20040;-81
2024/01/24 07:27:40;;;;;;;0.82;0.82;;;;;;;12.14;55.09;101719.56;5056105;28;20031;-79
2024/01/24 07:30:07;;;;;;;26.55;1.20;;;;;;;12.10;55.28;101718.72;5057047;28;20060;-79
2024/01/24 07:32:35;;;;;;;3.97;1.10;;;;;;;11.98;55.42;101742.75;5049972;28;20017;-80
2024/01/24 07:35:01;;;;;;;0.13;0.13;;;;;;;12.07;54.90;101724.03;5052431;28;20032;-79
2024/01/24 07:37:27;;;;;;;0.28;0.28;;;;;;;12.08;55.06;101772.75;5051573;28;20148;-79
2024/01/24 07:39:54;;;;;;;0.75;0.75;;;;;;;12.17;54.73;101755.81;5051818;28;20037;-79
2024/01/24 07:42:21;;;;;;;0.20;0.20;;;;;;;12.02;55.03;101770.16;5051269;28;20060;-77
2024/01/24 07:44:47;;;;;;;1.38;1.27;;;;;;;12.09;54.76;101787.81;5054333;28;20687;-81
2024/01/24 07:47:13;;;;;;;0.38;0.38;;;;;;;11.91;55.12;101781.75;5056596;28;20065;-81
2024/01/24 07:49:40;;;;;;;0.15;0.15;;;;;;;11.95;54.67;101783.47;5045126;28;20033;-81
2024/01/24 07:52:07;;;;;;;0.55;0.55;;;;;;;11.86;54.91;101780.91;5052084;28;20121;-81
2024/01/24 07:54:33;;;;;;;0.75;0.75;;;;;;;11.97;55.08;101787.03;5054593;28;20116;-81
2024/01/24 07:57:00;;;;;;;3.30;2.92;;;;;;;12.01;54.48;101774.56;5053903;28;20017;-80
2024/01/24 07:59:26;;;;;;;1.55;1.45;;;;;;;12.17;54.13;101791.22;5053785;28;20084;-81
2024/01/24 08:01:52;;;;;;;0.50;0.50;;;;;;;12.07;54.46;101801.06;5052457;28;20037;-81
2024/01/24 08:04:18;;;;;;;17.80;1.40;;;;;;;12.03;54.98;101825.91;5048233;28;20035;-84
2024/01/24 08:06:47;;;;;;;5.68;1.95;;;;;;;11.90;54.86;101810.97;5051783;28;20048;-83
2024/01/24 08:09:13;;;;;;;0.10;0.10;;;;;;;12.08;54.97;101801.97;5051732;28;20022;-83
2024/01/24 08:11:40;;;;;;;0.57;0.57;;;;;;;12.09;55.10;101811.72;5048263;28;20118;-81
2024/01/24 08:14:06;;;;;;;0.10;0.10;;;;;;;12.16;54.71;101826.66;5051790;28;20030;-81
2024/01/24 08:16:32;;;;;;;0.38;0.38;;;;;;;12.01;54.87;101851.59;5051377;28;20053;-80
2024/01/24 08:19:00;;;;;;;0.10;0.10;;;;;;;12.11;55.11;101879.88;5049206;28;20017;-81
2024/01/24 08:21:28;;;;;;;0.20;0.20;;;;;;;11.96;55.04;101843.72;5047140;28;20124;-81
2024/01/24 08:23:54;;;;;;;0.43;0.43;;;;;;;12.06;55.16;101840.94;5048436;28;20040;-81
2024/01/24 08:26:21;;;;;;;0.50;0.50;;;;;;;12.06;54.82;101827.66;5051536;28;20025;-82
2024/01/24 08:28:47;;;;;;;0.10;0.10;;;;;;;12.07;54.49;101856.00;5051314;28;20164;-81
2024/01/24 08:31:14;;;;;;;0.30;0.30;;;;;;;12.27;54.92;101838.06;5050970;28;20044;-80
2024/01/24 08:33:40;;;;;;;0.10;0.10;;;;;;;12.26;54.87;101860.22;5050121;28;20033;-79
2024/01/24 08:36:06;;;;;;;9.32;4.95;;;;;;;12.23;54.07;101856.72;5052762;28;20030;-79
2024/01/24 08:38:32;;;;;;;0.68;0.68;;;;;;;12.32;54.46;101887.63;5051698;28;20029;-80
2024/01/24 08:40:59;;;;;;;0.10;0.10;;;;;;;12.36;54.49;101873.41;5050547;28;20056;-79
2024/01/24 08:43:25;;;;;;;1.25;1.25;;;;;;;12.25;54.49;101871.75;5048858;28;20036;-79
2024/01/24 08:45:51;;;;;;;1.33;1.33;;;;;;;12.19;54.39;101871.81;5050657;28;20037;-79
2024/01/24 08:48:17;;;;;;;0.25;0.25;;;;;;;12.22;54.93;101865.59;5050264;28;20025;-79
2024/01/24 08:50:44;;;;;;;0.10;0.10;;;;;;;12.33;54.65;101876.09;5051103;28;20105;-79
2024/01/24 08:53:10;;;;;;;12.32;2.58;;;;;;;12.32;54.71;101875.22;5050438;28;20025;-83
2024/01/24 08:55:36;;;;;;;0.25;0.25;;;;;;;12.18;54.83;101912.56;5051390;28;20513;-80
2024/01/24 08:58:02;;;;;;;2.42;1.50;;;;;;;12.33;54.57;101900.03;5052690;28;20025;-80
2024/01/24 09:00:28;;;;;;;0.32;0.32;;;;;;;12.24;54.42;101923.13;5051488;28;20021;-79
2024/01/24 09:02:55;;;;;;;0.10;0.10;;;;;;;12.22;54.79;101898.34;5051540;28;20036;-80
2024/01/24 09:05:21;;;;;;;0.20;0.20;;;;;;;12.15;54.77;101909.94;5051760;28;20628;-80
2024/01/24 09:07:47;;;;;;;0.13;0.13;;;;;;;12.11;55.21;101905.53;5052381;28;20025;-81
2024/01/24 09:10:13;;;;;;;1.05;1.05;;;;;;;12.32;54.85;101898.25;5052446;28;20037;-82
2024/01/24 09:12:40;;;;;;;0.10;0.10;;;;;;;12.24;54.98;101923.13;5047903;28;20072;-81
2024/01/24 09:15:06;;;;;;;1.27;0.68;;;;;;;12.26;55.55;101926.66;5039712;28;20045;-80
2024/01/24 09:17:35;;;;;;;0.75;0.75;;;;;;;12.26;55.48;101926.66;5041576;28;20670;-82
2024/01/24 09:20:02;;;;;;;14.40;2.92;;;;;;;12.29;54.86;101969.13;5041948;28;20044;-81
2024/01/24 09:22:28;;;;;;;0.10;0.10;;;;;;;12.24;55.17;101965.63;5048501;28;20037;-81
2024/01/24 09:24:54;;;;;;;0.52;0.52;;;;;;;12.22;55.26;101988.66;5051508;28;20034;-79
2024/01/24 09:27:20;;;;;;;19.23;1.67;;;;;;;12.13;55.30;101986.09;5048969;28;20585;-81
2024/01/24 09:29:47;;;;;;;0.10;0.10;;;;;;;12.19;54.87;101988.72;5048925;28;20065;-82
2024/01/24 09:32:13;;;;;;;0.10;0.10;;;;;;;12.34;54.82;101966.44;5050262;28;20040;-81
2024/01/24 09:34:39;;;;;;;3.60;1.00;;;;;;;12.25;55.25;101967.41;5052219;28;20064;-81
2024/01/24 09:37:05;;;;;;;1.40;0.90;;;;;;;12.17;55.04;101979.88;5053028;28;20065;-80
2024/01/24 09:39:31;;;;;;;0.47;0.47;;;;;;;12.08;55.29;101985.25;5052043;28;20041;-81
2024/01/24 09:41:58;;;;;;;3.45;1.75;;;;;;;12.32;55.54;101993.94;5051532;28;20032;-80
2024/01/24 09:44:30;;;;;;;0.73;0.73;;;;;;;12.27;55.14;101994.84;5053465;28;20036;-81
2024/01/24 09:46:56;;;;;;;0.20;0.20;;;;;;;12.37;55.16;101984.13;5048776;28;20032;-80
2024/01/24 09:49:25;;;;;;;3.22;3.03;;;;;;;12.40;54.79;102002.69;5051811;28;20025;-80
2024/01/24 09:51:53;;;;;;;1.25;1.25;;;;;;;12.43;55.28;102010.66;5051612;28;20328;-80
2024/01/24 09:54:20;;;;;;;0.90;0.90;;;;;;;12.54;54.74;102011.44;5052131;28;20025;-79
2024/01/24 09:56:48;;;;;;;0.10;0.10;;;;;;;12.49;54.97;102002.63;5052480;28;20018;-80
2024/01/24 09:59:14;;;;;;;0.90;0.90;;;;;;;12.52;54.98;102050.44;5052749;28;20517;-80
2024/01/24 10:01:41;;;;;;;0.20;0.20;;;;;;;12.50;54.74;102012.38;5051593;28;20092;-78
2024/01/24 10:04:08;;;;;;;2.15;2.05;;;;;;;12.34;55.04;102034.66;5048448;28;20032;-79
2024/01/24 10:06:38;;;;;;;0.10;0.10;;;;;;;12.55;54.81;102042.44;5053364;28;20444;-79
2024/01/24 10:09:05;;;;;;;0.28;0.28;;;;;;;12.56;54.95;102052.19;5051600;28;20025;-78
2024/01/24 10:11:31;;;;;;;0.20;0.20;;;;;;;12.68;54.87;102040.53;5050274;28;20029;-79
2024/01/24 10:13:58;;;;;;;0.57;0.57;;;;;;;12.70;54.29;102059.16;5048496;28;20056;-78
2024/01/24 10:16:25;;;;;;;1.30;1.30;;;;;;;12.54;54.55;102064.59;5048492;28;20053;-78
2024/01/24 10:18:53;;;;;;;0.10;0.10;;;;;;;12.73;54.32;102080.41;5048828;28;20026;-78
2024/01/24 10:21:19;;;;;;;0.10;0.10;;;;;;;12.78;53.90;102063.50;5051053;28;20021;-78
2024/01/24 10:23:45;;;;;;;2.25;1.90;;;;;;;12.67;54.60;102069.81;5050137;28;20033;-80
2024/01/24 10:26:12;;;;;;;0.35;0.35;;;;;;;12.69;54.80;102082.19;5046008;28;20044;-82
2024/01/24 10:28:38;;;;;;;1.20;1.20;;;;;;;12.64;54.81;102123.03;5046718;28;20025;-78
2024/01/24 10:31:06;;;;;;;33.90;2.10;;;;;;;12.61;55.10;102103.53;5045183;28;20061;-78
2024/01/24 10:33:32;;;;;;;0.30;0.30;;;;;;;12.70;54.31;102091.94;5044574;28;20034;-81
2024/01/24 10:35:59;;;;;;;0.10;0.10;;;;;;;12.67;54.33;102085.75;5045481;28;20029;-78
2024/01/24 10:38:31;;;;;;;1.65;1.55;;;;;;;12.77;54.41;102092.75;5046978;28;20029;-80
2024/01/24 10:41:00;;;;;;;3.72;2.13;;;;;;;12.59;54.78;102152.31;5046455;28;20082;-78
2024/01/24 10:43:27;;;;;;;0.10;0.10;;;;;;;12.49;55.04;102119.59;5034766;28;20104;-77
2024/01/24 10:45:55;;;;;;;3.35;1.98;;;;;;;12.57;55.06;102133.72;5040289;28;20100;-78
2024/01/24 10:48:21;;;;;;;1.23;1.23;;;;;;;12.64;54.94;102131.88;5046227;28;20036;-78
2024/01/24 10:50:48;;;;;;;0.22;0.22;;;;;;;12.51;55.35;102117.81;5040945;28;20065;-78
2024/01/24 10:53:14;;;;;;;0.20;0.20;;;;;;;12.62;55.28;102136.31;5041874;28;20056;-79
2024/01/24 10:55:41;;;;;;;1.00;1.00;;;;;;;12.63;55.09;102132.78;5044534;28;20051;-82
2024/01/24 10:58:11;;;;;;;0.25;0.25;;;;;;;12.68;55.07;102130.09;5043736;28;20033;-82
2024/01/24 11:00:39;;;;;;;2.83;1.38;;;;;;;12.59;54.56;102155.84;5039429;28;20055;-81
2024/01/24 11:03:06;;;;;;;1.17;1.17;;;;;;;12.59;54.66;102136.34;5035625;28;20044;-81
2024/01/24 11:11:02;;;;;;;3.63;2.53;;;;;;;12.64;54.44;102155.81;5112882;27;20388;-82
2024/01/24 11:13:29;;;;;;;0.10;0.10;;;;;;;12.65;54.31;102184.16;5095160;28;20210;-82
2024/01/24 11:15:56;;;;;;;0.10;0.10;;;;;;;12.70;54.42;102162.88;5092271;28;20507;-81
2024/01/24 11:21:00;;;;;;;0.30;0.30;;;;;;;12.68;54.12;102162.84;5072439;28;20137;-80
2024/01/24 11:23:44;;;;;;;0.20;0.20;;;;;;;12.68;54.77;102177.94;5074958;28;20032;-80
2024/01/24 11:26:32;;;;;;;0.30;0.30;;;;;;;12.64;54.16;102187.72;5069392;28;20020;-80
2024/01/24 11:29:14;;;;;;;0.10;0.10;;;;;;;12.68;54.29;102200.09;5062669;28;20079;-80